sensor_id;sensor_type;location;lat;lon;timestamp;P1;durP1;ratioP1;P2;durP2;ratioP2
36001;SDS011;22070;50.922;5.430;2022-12-10T00:00:18;77.60;;;30.48;;
36001;SDS011;22070;50.922;5.430;2022-12-10T00:02:43;71.72;;;28.40;;
36001;SDS011;22070;50.922;5.430;2022-12-10T00:05:09;69.27;;;27.53;;
36001;SDS011;22070;50.922;5.430;2022-12-10T00:07:35;69.33;;;28.30;;
36001;SDS011;22070;50.922;5.430;2022-12-10T00:10:00;69.07;;;27.90;;
36001;SDS011;22070;50.922;5.430;2022-12-10T00:12:26;65.20;;;27.03;;
36001;SDS011;22070;50.922;5.430;2022-12-10T00:14:52;69.50;;;27.80;;
36001;SDS011;22070;50.922;5.430;2022-12-10T00:17:17;65.00;;;28.57;;
36001;SDS011;22070;50.922;5.430;2022-12-10T00:19:43;63.83;;;26.33;;
36001;SDS011;22070;50.922;5.430;2022-12-10T00:22:08;64.13;;;25.93;;
36001;SDS011;22070;50.922;5.430;2022-12-10T00:24:34;61.92;;;25.73;;
36001;SDS011;22070;50.922;5.430;2022-12-10T00:27:00;69.27;;;27.80;;
36001;SDS011;22070;50.922;5.430;2022-12-10T00:29:25;64.93;;;26.98;;
36001;SDS011;22070;50.922;5.430;2022-12-10T00:31:51;64.78;;;27.65;;
36001;SDS011;22070;50.922;5.430;2022-12-10T00:34:17;66.10;;;27.85;;
36001;SDS011;22070;50.922;5.430;2022-12-10T00:36:43;66.03;;;27.77;;
36001;SDS011;22070;50.922;5.430;2022-12-10T00:39:12;63.70;;;26.95;;
36001;SDS011;22070;50.922;5.430;2022-12-10T00:41:39;79.63;;;32.17;;
36001;SDS011;22070;50.922;5.430;2022-12-10T00:44:05;66.03;;;27.23;;
36001;SDS011;22070;50.922;5.430;2022-12-10T00:46:31;71.03;;;27.60;;
36001;SDS011;22070;50.922;5.430;2022-12-10T00:48:57;70.60;;;29.10;;
36001;SDS011;22070;50.922;5.430;2022-12-10T00:51:24;67.28;;;27.42;;
36001;SDS011;22070;50.922;5.430;2022-12-10T00:53:52;71.82;;;28.98;;
36001;SDS011;22070;50.922;5.430;2022-12-10T00:56:20;63.65;;;26.63;;
36001;SDS011;22070;50.922;5.430;2022-12-10T00:58:48;63.92;;;26.85;;
36001;SDS011;22070;50.922;5.430;2022-12-10T01:01:36;60.63;;;24.88;;
36001;SDS011;22070;50.922;5.430;2022-12-10T01:04:06;59.92;;;24.42;;
36001;SDS011;22070;50.922;5.430;2022-12-10T01:06:48;57.78;;;23.77;;
36001;SDS011;22070;50.922;5.430;2022-12-10T01:09:18;59.72;;;24.90;;
36001;SDS011;22070;50.922;5.430;2022-12-10T01:11:49;57.22;;;24.27;;
36001;SDS011;22070;50.922;5.430;2022-12-10T01:14:18;57.75;;;25.08;;
36001;SDS011;22070;50.922;5.430;2022-12-10T01:16:56;60.80;;;25.25;;
36001;SDS011;22070;50.922;5.430;2022-12-10T01:19:29;64.05;;;26.17;;
36001;SDS011;22070;50.922;5.430;2022-12-10T01:21:56;59.65;;;24.90;;
36001;SDS011;22070;50.922;5.430;2022-12-10T01:24:23;63.43;;;26.63;;
36001;SDS011;22070;50.922;5.430;2022-12-10T01:26:50;63.55;;;26.08;;
36001;SDS011;22070;50.922;5.430;2022-12-10T01:29:15;61.80;;;25.77;;
36001;SDS011;22070;50.922;5.430;2022-12-10T01:31:41;60.83;;;26.50;;
36001;SDS011;22070;50.922;5.430;2022-12-10T01:34:09;63.93;;;24.80;;
36001;SDS011;22070;50.922;5.430;2022-12-10T01:36:38;62.60;;;26.00;;
36001;SDS011;22070;50.922;5.430;2022-12-10T01:39:07;63.80;;;26.00;;
36001;SDS011;22070;50.922;5.430;2022-12-10T01:46:40;63.53;;;25.20;;
36001;SDS011;22070;50.922;5.430;2022-12-10T01:49:09;62.92;;;24.08;;
36001;SDS011;22070;50.922;5.430;2022-12-10T01:51:44;58.42;;;24.92;;
36001;SDS011;22070;50.922;5.430;2022-12-10T01:54:13;61.15;;;22.17;;
36001;SDS011;22070;50.922;5.430;2022-12-10T01:56:45;58.08;;;22.25;;
36001;SDS011;22070;50.922;5.430;2022-12-10T01:59:14;61.78;;;22.73;;
36001;SDS011;22070;50.922;5.430;2022-12-10T02:04:24;58.35;;;21.42;;
36001;SDS011;22070;50.922;5.430;2022-12-10T02:07:13;63.03;;;22.38;;
36001;SDS011;22070;50.922;5.430;2022-12-10T02:12:22;55.75;;;21.20;;
36001;SDS011;22070;50.922;5.430;2022-12-10T02:15:00;53.53;;;22.08;;
36001;SDS011;22070;50.922;5.430;2022-12-10T02:20:17;52.88;;;19.80;;
36001;SDS011;22070;50.922;5.430;2022-12-10T02:25:36;59.83;;;23.42;;
36001;SDS011;22070;50.922;5.430;2022-12-10T02:30:38;57.55;;;22.98;;
36001;SDS011;22070;50.922;5.430;2022-12-10T02:33:06;62.22;;;23.17;;
36001;SDS011;22070;50.922;5.430;2022-12-10T02:35:33;61.33;;;22.10;;
36001;SDS011;22070;50.922;5.430;2022-12-10T02:38:09;55.25;;;22.35;;
36001;SDS011;22070;50.922;5.430;2022-12-10T02:40:43;57.72;;;21.65;;
36001;SDS011;22070;50.922;5.430;2022-12-10T02:43:13;53.00;;;21.08;;
36001;SDS011;22070;50.922;5.430;2022-12-10T02:45:40;56.10;;;21.75;;
36001;SDS011;22070;50.922;5.430;2022-12-10T02:48:07;53.15;;;21.10;;
36001;SDS011;22070;50.922;5.430;2022-12-10T02:50:34;55.72;;;20.98;;
36001;SDS011;22070;50.922;5.430;2022-12-10T02:53:00;56.47;;;21.20;;
36001;SDS011;22070;50.922;5.430;2022-12-10T02:55:25;61.03;;;21.60;;
36001;SDS011;22070;50.922;5.430;2022-12-10T03:00:32;61.67;;;22.55;;
36001;SDS011;22070;50.922;5.430;2022-12-10T03:08:23;60.38;;;22.35;;
36001;SDS011;22070;50.922;5.430;2022-12-10T03:11:04;57.85;;;23.08;;
36001;SDS011;22070;50.922;5.430;2022-12-10T03:13:57;60.15;;;22.23;;
36001;SDS011;22070;50.922;5.430;2022-12-10T03:16:24;59.85;;;22.58;;
36001;SDS011;22070;50.922;5.430;2022-12-10T03:18:56;57.00;;;21.90;;
36001;SDS011;22070;50.922;5.430;2022-12-10T03:21:25;61.58;;;23.60;;
36001;SDS011;22070;50.922;5.430;2022-12-10T03:23:53;61.28;;;23.95;;
36001;SDS011;22070;50.922;5.430;2022-12-10T03:26:19;62.25;;;22.77;;
36001;SDS011;22070;50.922;5.430;2022-12-10T03:28:48;56.28;;;22.55;;
36001;SDS011;22070;50.922;5.430;2022-12-10T03:31:18;64.07;;;23.92;;
36001;SDS011;22070;50.922;5.430;2022-12-10T03:33:44;59.08;;;21.65;;
36001;SDS011;22070;50.922;5.430;2022-12-10T03:36:11;58.80;;;21.60;;
36001;SDS011;22070;50.922;5.430;2022-12-10T03:38:38;53.55;;;21.15;;
36001;SDS011;22070;50.922;5.430;2022-12-10T03:43:30;57.83;;;21.77;;
36001;SDS011;22070;50.922;5.430;2022-12-10T03:45:56;58.73;;;21.90;;
36001;SDS011;22070;50.922;5.430;2022-12-10T03:48:21;56.97;;;21.90;;
36001;SDS011;22070;50.922;5.430;2022-12-10T03:50:47;55.80;;;21.70;;
36001;SDS011;22070;50.922;5.430;2022-12-10T03:53:13;61.03;;;22.97;;
36001;SDS011;22070;50.922;5.430;2022-12-10T03:55:38;58.28;;;22.55;;
36001;SDS011;22070;50.922;5.430;2022-12-10T03:58:04;57.75;;;21.38;;
36001;SDS011;22070;50.922;5.430;2022-12-10T04:00:30;61.38;;;23.88;;
36001;SDS011;22070;50.922;5.430;2022-12-10T04:02:56;56.47;;;23.37;;
36001;SDS011;22070;50.922;5.430;2022-12-10T04:05:21;65.88;;;22.33;;
36001;SDS011;22070;50.922;5.430;2022-12-10T04:07:47;61.13;;;23.00;;
36001;SDS011;22070;50.922;5.430;2022-12-10T04:10:13;60.28;;;22.05;;
36001;SDS011;22070;50.922;5.430;2022-12-10T04:12:38;57.00;;;23.05;;
36001;SDS011;22070;50.922;5.430;2022-12-10T04:15:04;61.60;;;23.30;;
36001;SDS011;22070;50.922;5.430;2022-12-10T04:17:49;63.33;;;22.42;;
36001;SDS011;22070;50.922;5.430;2022-12-10T04:20:15;71.82;;;26.63;;
36001;SDS011;22070;50.922;5.430;2022-12-10T04:22:59;60.97;;;23.52;;
36001;SDS011;22070;50.922;5.430;2022-12-10T04:25:44;59.83;;;21.98;;
36001;SDS011;22070;50.922;5.430;2022-12-10T04:28:28;63.45;;;23.55;;
36001;SDS011;22070;50.922;5.430;2022-12-10T04:30:54;59.33;;;21.90;;
36001;SDS011;22070;50.922;5.430;2022-12-10T04:33:19;44.07;;;16.70;;
36001;SDS011;22070;50.922;5.430;2022-12-10T04:35:45;62.40;;;23.30;;
36001;SDS011;22070;50.922;5.430;2022-12-10T04:38:11;62.50;;;22.57;;
36001;SDS011;22070;50.922;5.430;2022-12-10T04:40:36;59.60;;;23.20;;
36001;SDS011;22070;50.922;5.430;2022-12-10T04:43:02;56.20;;;21.93;;
36001;SDS011;22070;50.922;5.430;2022-12-10T04:45:27;54.70;;;21.98;;
36001;SDS011;22070;50.922;5.430;2022-12-10T04:47:53;60.83;;;21.57;;
36001;SDS011;22070;50.922;5.430;2022-12-10T04:50:19;59.50;;;21.98;;
36001;SDS011;22070;50.922;5.430;2022-12-10T04:52:44;46.42;;;16.65;;
36001;SDS011;22070;50.922;5.430;2022-12-10T04:55:10;61.77;;;23.00;;
36001;SDS011;22070;50.922;5.430;2022-12-10T04:57:35;61.40;;;22.47;;
36001;SDS011;22070;50.922;5.430;2022-12-10T05:00:01;58.47;;;22.48;;
36001;SDS011;22070;50.922;5.430;2022-12-10T05:02:27;62.97;;;23.58;;
36001;SDS011;22070;50.922;5.430;2022-12-10T05:04:53;57.47;;;22.97;;
36001;SDS011;22070;50.922;5.430;2022-12-10T05:07:19;57.25;;;22.45;;
36001;SDS011;22070;50.922;5.430;2022-12-10T05:09:44;44.85;;;17.23;;
36001;SDS011;22070;50.922;5.430;2022-12-10T05:12:10;61.53;;;23.97;;
36001;SDS011;22070;50.922;5.430;2022-12-10T05:14:35;60.45;;;23.10;;
36001;SDS011;22070;50.922;5.430;2022-12-10T05:17:01;60.40;;;23.60;;
36001;SDS011;22070;50.922;5.430;2022-12-10T05:19:27;58.15;;;24.35;;
36001;SDS011;22070;50.922;5.430;2022-12-10T05:21:52;56.07;;;22.97;;
36001;SDS011;22070;50.922;5.430;2022-12-10T05:24:37;55.13;;;22.02;;
36001;SDS011;22070;50.922;5.430;2022-12-10T05:27:03;57.70;;;24.02;;
36001;SDS011;22070;50.922;5.430;2022-12-10T05:29:29;67.85;;;25.10;;
36001;SDS011;22070;50.922;5.430;2022-12-10T05:31:56;60.40;;;23.73;;
36001;SDS011;22070;50.922;5.430;2022-12-10T05:34:22;64.03;;;24.53;;
36001;SDS011;22070;50.922;5.430;2022-12-10T05:36:48;63.73;;;25.10;;
36001;SDS011;22070;50.922;5.430;2022-12-10T05:39:13;61.80;;;23.67;;
36001;SDS011;22070;50.922;5.430;2022-12-10T05:41:39;67.37;;;24.07;;
36001;SDS011;22070;50.922;5.430;2022-12-10T05:44:06;63.38;;;24.10;;
36001;SDS011;22070;50.922;5.430;2022-12-10T05:46:33;59.83;;;22.60;;
36001;SDS011;22070;50.922;5.430;2022-12-10T05:49:00;61.05;;;23.83;;
36001;SDS011;22070;50.922;5.430;2022-12-10T05:51:29;61.08;;;23.08;;
36001;SDS011;22070;50.922;5.430;2022-12-10T05:53:57;61.28;;;24.55;;
36001;SDS011;22070;50.922;5.430;2022-12-10T05:56:24;59.17;;;23.15;;
36001;SDS011;22070;50.922;5.430;2022-12-10T05:58:51;70.13;;;23.67;;
36001;SDS011;22070;50.922;5.430;2022-12-10T06:01:19;62.35;;;22.95;;
36001;SDS011;22070;50.922;5.430;2022-12-10T06:03:47;66.20;;;23.50;;
36001;SDS011;22070;50.922;5.430;2022-12-10T06:06:19;68.38;;;24.45;;
36001;SDS011;22070;50.922;5.430;2022-12-10T06:08:53;64.68;;;24.33;;
36001;SDS011;22070;50.922;5.430;2022-12-10T06:13:46;63.30;;;24.33;;
36001;SDS011;22070;50.922;5.430;2022-12-10T06:16:13;72.93;;;24.40;;
36001;SDS011;22070;50.922;5.430;2022-12-10T06:18:40;62.05;;;23.35;;
36001;SDS011;22070;50.922;5.430;2022-12-10T06:23:34;69.85;;;22.75;;
36001;SDS011;22070;50.922;5.430;2022-12-10T06:26:07;64.80;;;23.27;;
36001;SDS011;22070;50.922;5.430;2022-12-10T06:28:43;63.28;;;22.45;;
36001;SDS011;22070;50.922;5.430;2022-12-10T06:31:10;74.55;;;24.35;;
36001;SDS011;22070;50.922;5.430;2022-12-10T06:33:37;67.22;;;23.77;;
36001;SDS011;22070;50.922;5.430;2022-12-10T06:36:03;71.50;;;22.92;;
36001;SDS011;22070;50.922;5.430;2022-12-10T06:38:30;70.20;;;22.83;;
36001;SDS011;22070;50.922;5.430;2022-12-10T06:40:56;70.30;;;22.70;;
36001;SDS011;22070;50.922;5.430;2022-12-10T06:43:21;72.10;;;23.40;;
36001;SDS011;22070;50.922;5.430;2022-12-10T06:45:47;65.93;;;22.63;;
36001;SDS011;22070;50.922;5.430;2022-12-10T06:48:13;68.65;;;21.85;;
36001;SDS011;22070;50.922;5.430;2022-12-10T06:50:38;72.37;;;23.50;;
36001;SDS011;22070;50.922;5.430;2022-12-10T06:53:04;59.27;;;21.07;;
36001;SDS011;22070;50.922;5.430;2022-12-10T06:55:30;63.10;;;21.93;;
36001;SDS011;22070;50.922;5.430;2022-12-10T06:57:55;69.73;;;23.20;;
36001;SDS011;22070;50.922;5.430;2022-12-10T07:00:21;72.27;;;22.47;;
36001;SDS011;22070;50.922;5.430;2022-12-10T07:02:48;69.43;;;22.27;;
36001;SDS011;22070;50.922;5.430;2022-12-10T07:05:14;73.97;;;23.90;;
36001;SDS011;22070;50.922;5.430;2022-12-10T07:07:40;70.57;;;22.70;;
36001;SDS011;22070;50.922;5.430;2022-12-10T07:10:06;67.27;;;21.53;;
36001;SDS011;22070;50.922;5.430;2022-12-10T07:12:33;71.78;;;21.55;;
36001;SDS011;22070;50.922;5.430;2022-12-10T07:14:58;68.75;;;23.08;;
36001;SDS011;22070;50.922;5.430;2022-12-10T07:17:24;66.13;;;21.73;;
36001;SDS011;22070;50.922;5.430;2022-12-10T07:19:49;62.97;;;21.17;;
36001;SDS011;22070;50.922;5.430;2022-12-10T07:22:15;75.97;;;23.00;;
36001;SDS011;22070;50.922;5.430;2022-12-10T07:24:41;65.95;;;21.17;;
36001;SDS011;22070;50.922;5.430;2022-12-10T07:27:07;61.00;;;21.07;;
36001;SDS011;22070;50.922;5.430;2022-12-10T07:29:33;65.83;;;20.93;;
36001;SDS011;22070;50.922;5.430;2022-12-10T07:31:59;59.10;;;21.23;;
36001;SDS011;22070;50.922;5.430;2022-12-10T07:34:25;67.43;;;20.73;;
36001;SDS011;22070;50.922;5.430;2022-12-10T07:36:51;68.65;;;21.33;;
36001;SDS011;22070;50.922;5.430;2022-12-10T07:39:16;63.77;;;21.73;;
36001;SDS011;22070;50.922;5.430;2022-12-10T07:41:43;61.90;;;20.93;;
36001;SDS011;22070;50.922;5.430;2022-12-10T07:44:12;63.55;;;21.88;;
36001;SDS011;22070;50.922;5.430;2022-12-10T07:46:38;63.63;;;20.90;;
36001;SDS011;22070;50.922;5.430;2022-12-10T07:49:04;64.43;;;21.83;;
36001;SDS011;22070;50.922;5.430;2022-12-10T07:51:30;64.87;;;21.60;;
36001;SDS011;22070;50.922;5.430;2022-12-10T07:53:56;62.07;;;20.27;;
36001;SDS011;22070;50.922;5.430;2022-12-10T07:56:22;64.33;;;21.90;;
36001;SDS011;22070;50.922;5.430;2022-12-10T07:58:49;63.78;;;21.77;;
36001;SDS011;22070;50.922;5.430;2022-12-10T08:01:18;70.87;;;22.40;;
36001;SDS011;22070;50.922;5.430;2022-12-10T08:03:48;68.68;;;21.60;;
36001;SDS011;22070;50.922;5.430;2022-12-10T08:06:14;60.37;;;19.93;;
36001;SDS011;22070;50.922;5.430;2022-12-10T08:08:42;55.92;;;19.95;;
36001;SDS011;22070;50.922;5.430;2022-12-10T08:11:09;63.20;;;19.77;;
36001;SDS011;22070;50.922;5.430;2022-12-10T08:13:35;64.97;;;21.02;;
36001;SDS011;22070;50.922;5.430;2022-12-10T08:16:06;60.38;;;20.17;;
36001;SDS011;22070;50.922;5.430;2022-12-10T08:18:37;63.25;;;20.80;;
36001;SDS011;22070;50.922;5.430;2022-12-10T08:21:04;57.03;;;20.17;;
36001;SDS011;22070;50.922;5.430;2022-12-10T08:23:30;59.42;;;20.35;;
36001;SDS011;22070;50.922;5.430;2022-12-10T08:25:56;61.95;;;20.25;;
36001;SDS011;22070;50.922;5.430;2022-12-10T08:28:21;59.60;;;20.23;;
36001;SDS011;22070;50.922;5.430;2022-12-10T08:30:47;61.03;;;20.67;;
36001;SDS011;22070;50.922;5.430;2022-12-10T08:33:13;66.88;;;21.85;;
36001;SDS011;22070;50.922;5.430;2022-12-10T08:35:39;58.17;;;21.93;;
36001;SDS011;22070;50.922;5.430;2022-12-10T08:38:05;65.07;;;21.13;;
36001;SDS011;22070;50.922;5.430;2022-12-10T08:40:31;62.17;;;20.97;;
36001;SDS011;22070;50.922;5.430;2022-12-10T08:42:56;65.13;;;20.75;;
36001;SDS011;22070;50.922;5.430;2022-12-10T08:45:22;58.22;;;20.65;;
36001;SDS011;22070;50.922;5.430;2022-12-10T08:47:47;64.87;;;22.03;;
36001;SDS011;22070;50.922;5.430;2022-12-10T08:50:13;60.77;;;20.47;;
36001;SDS011;22070;50.922;5.430;2022-12-10T08:52:39;64.40;;;20.30;;
36001;SDS011;22070;50.922;5.430;2022-12-10T08:55:04;62.15;;;21.35;;
36001;SDS011;22070;50.922;5.430;2022-12-10T08:57:30;48.37;;;14.83;;
36001;SDS011;22070;50.922;5.430;2022-12-10T08:59:56;68.03;;;20.95;;
36001;SDS011;22070;50.922;5.430;2022-12-10T09:02:22;69.97;;;21.97;;
36001;SDS011;22070;50.922;5.430;2022-12-10T09:04:47;66.50;;;21.80;;
36001;SDS011;22070;50.922;5.430;2022-12-10T09:07:15;59.67;;;22.15;;
36001;SDS011;22070;50.922;5.430;2022-12-10T09:09:41;70.68;;;21.15;;
36001;SDS011;22070;50.922;5.430;2022-12-10T09:12:06;64.73;;;21.10;;
36001;SDS011;22070;50.922;5.430;2022-12-10T09:14:32;62.50;;;20.83;;
36001;SDS011;22070;50.922;5.430;2022-12-10T09:16:58;61.27;;;20.77;;
36001;SDS011;22070;50.922;5.430;2022-12-10T09:19:27;65.30;;;21.08;;
36001;SDS011;22070;50.922;5.430;2022-12-10T09:21:53;59.90;;;21.38;;
36001;SDS011;22070;50.922;5.430;2022-12-10T09:24:18;58.73;;;20.53;;
36001;SDS011;22070;50.922;5.430;2022-12-10T09:26:44;55.97;;;20.67;;
36001;SDS011;22070;50.922;5.430;2022-12-10T09:29:10;58.33;;;19.57;;
36001;SDS011;22070;50.922;5.430;2022-12-10T09:31:35;59.10;;;20.87;;
36001;SDS011;22070;50.922;5.430;2022-12-10T09:34:01;63.00;;;21.10;;
36001;SDS011;22070;50.922;5.430;2022-12-10T09:36:27;55.75;;;20.30;;
36001;SDS011;22070;50.922;5.430;2022-12-10T09:38:53;60.38;;;20.65;;
36001;SDS011;22070;50.922;5.430;2022-12-10T09:46:55;58.40;;;21.00;;
36001;SDS011;22070;50.922;5.430;2022-12-10T09:52:25;61.60;;;20.88;;
36001;SDS011;22070;50.922;5.430;2022-12-10T09:55:01;63.17;;;20.33;;
36001;SDS011;22070;50.922;5.430;2022-12-10T09:57:35;62.27;;;21.37;;
36001;SDS011;22070;50.922;5.430;2022-12-10T10:00:05;64.32;;;20.35;;
36001;SDS011;22070;50.922;5.430;2022-12-10T10:02:41;62.28;;;20.83;;
36001;SDS011;22070;50.922;5.430;2022-12-10T10:07:34;59.73;;;20.10;;
36001;SDS011;22070;50.922;5.430;2022-12-10T10:10:05;50.75;;;19.10;;
36001;SDS011;22070;50.922;5.430;2022-12-10T10:12:39;55.42;;;19.30;;
36001;SDS011;22070;50.922;5.430;2022-12-10T10:15:16;51.97;;;20.45;;
36001;SDS011;22070;50.922;5.430;2022-12-10T10:17:44;59.08;;;19.27;;
36001;SDS011;22070;50.922;5.430;2022-12-10T10:20:13;57.90;;;20.33;;
36001;SDS011;22070;50.922;5.430;2022-12-10T10:22:39;61.45;;;20.90;;
36001;SDS011;22070;50.922;5.430;2022-12-10T10:25:06;62.20;;;21.88;;
36001;SDS011;22070;50.922;5.430;2022-12-10T10:27:42;62.55;;;21.55;;
36001;SDS011;22070;50.922;5.430;2022-12-10T10:30:13;58.10;;;20.15;;
36001;SDS011;22070;50.922;5.430;2022-12-10T10:35:18;65.20;;;21.80;;
36001;SDS011;22070;50.922;5.430;2022-12-10T10:37:56;67.68;;;21.75;;
36001;SDS011;22070;50.922;5.430;2022-12-10T10:40:25;60.83;;;19.83;;
36001;SDS011;22070;50.922;5.430;2022-12-10T10:43:22;66.78;;;21.90;;
36001;SDS011;22070;50.922;5.430;2022-12-10T10:46:16;61.30;;;21.35;;
36001;SDS011;22070;50.922;5.430;2022-12-10T10:48:46;62.33;;;21.95;;
36001;SDS011;22070;50.922;5.430;2022-12-10T10:53:47;47.28;;;15.82;;
36001;SDS011;22070;50.922;5.430;2022-12-10T11:01:46;74.40;;;25.48;;
36001;SDS011;22070;50.922;5.430;2022-12-10T11:04:15;67.63;;;21.67;;
36001;SDS011;22070;50.922;5.430;2022-12-10T11:06:42;65.68;;;20.45;;
36001;SDS011;22070;50.922;5.430;2022-12-10T11:12:03;60.25;;;20.92;;
36001;SDS011;22070;50.922;5.430;2022-12-10T11:14:40;69.32;;;22.15;;
36001;SDS011;22070;50.922;5.430;2022-12-10T11:19:35;62.10;;;20.98;;
36001;SDS011;22070;50.922;5.430;2022-12-10T11:24:47;62.77;;;19.70;;
36001;SDS011;22070;50.922;5.430;2022-12-10T11:27:17;66.32;;;22.33;;
36001;SDS011;22070;50.922;5.430;2022-12-10T11:35:31;64.03;;;20.88;;
36001;SDS011;22070;50.922;5.430;2022-12-10T11:38:21;58.83;;;21.23;;
36001;SDS011;22070;50.922;5.430;2022-12-10T11:40:59;63.53;;;22.08;;
36001;SDS011;22070;50.922;5.430;2022-12-10T11:43:44;58.97;;;22.75;;
36001;SDS011;22070;50.922;5.430;2022-12-10T11:49:18;66.80;;;22.65;;
36001;SDS011;22070;50.922;5.430;2022-12-10T12:00:24;57.58;;;20.52;;
36001;SDS011;22070;50.922;5.430;2022-12-10T12:03:00;64.20;;;21.00;;
36001;SDS011;22070;50.922;5.430;2022-12-10T12:05:36;60.85;;;20.15;;
36001;SDS011;22070;50.922;5.430;2022-12-10T12:08:16;62.90;;;21.88;;
36001;SDS011;22070;50.922;5.430;2022-12-10T12:10:55;65.32;;;21.90;;
36001;SDS011;22070;50.922;5.430;2022-12-10T12:14:19;68.47;;;22.60;;
36001;SDS011;22070;50.922;5.430;2022-12-10T12:16:47;62.60;;;19.10;;
36001;SDS011;22070;50.922;5.430;2022-12-10T12:19:38;73.18;;;21.92;;
36001;SDS011;22070;50.922;5.430;2022-12-10T12:24:59;62.50;;;19.23;;
36001;SDS011;22070;50.922;5.430;2022-12-10T12:27:46;60.88;;;20.42;;
36001;SDS011;22070;50.922;5.430;2022-12-10T12:30:25;67.90;;;22.40;;
36001;SDS011;22070;50.922;5.430;2022-12-10T12:32:53;62.70;;;20.80;;
36001;SDS011;22070;50.922;5.430;2022-12-10T12:40:43;72.60;;;22.58;;
36001;SDS011;22070;50.922;5.430;2022-12-10T12:46:02;71.55;;;21.25;;
36001;SDS011;22070;50.922;5.430;2022-12-10T12:48:41;63.88;;;21.48;;
36001;SDS011;22070;50.922;5.430;2022-12-10T12:51:38;65.90;;;22.08;;
36001;SDS011;22070;50.922;5.430;2022-12-10T12:54:25;64.10;;;20.33;;
36001;SDS011;22070;50.922;5.430;2022-12-10T12:59:56;65.13;;;21.08;;
36001;SDS011;22070;50.922;5.430;2022-12-10T13:05:20;69.40;;;21.38;;
36001;SDS011;22070;50.922;5.430;2022-12-10T13:13:39;67.45;;;22.58;;
36001;SDS011;22070;50.922;5.430;2022-12-10T13:43:30;60.78;;;18.70;;
36001;SDS011;22070;50.922;5.430;2022-12-10T13:48:57;57.20;;;18.55;;
36001;SDS011;22070;50.922;5.430;2022-12-10T14:05:23;65.88;;;21.70;;
36001;SDS011;22070;50.922;5.430;2022-12-10T14:07:59;73.18;;;21.48;;
36001;SDS011;22070;50.922;5.430;2022-12-10T14:10:30;72.05;;;20.95;;
36001;SDS011;22070;50.922;5.430;2022-12-10T14:12:58;65.47;;;20.38;;
36001;SDS011;22070;50.922;5.430;2022-12-10T14:15:26;68.60;;;21.65;;
36001;SDS011;22070;50.922;5.430;2022-12-10T14:17:54;64.53;;;20.10;;
36001;SDS011;22070;50.922;5.430;2022-12-10T14:20:26;57.85;;;18.38;;
36001;SDS011;22070;50.922;5.430;2022-12-10T14:23:02;61.10;;;20.55;;
36001;SDS011;22070;50.922;5.430;2022-12-10T14:25:48;64.32;;;18.65;;
36001;SDS011;22070;50.922;5.430;2022-12-10T14:28:17;59.78;;;18.02;;
36001;SDS011;22070;50.922;5.430;2022-12-10T14:30:44;62.75;;;18.80;;
36001;SDS011;22070;50.922;5.430;2022-12-10T14:33:12;67.50;;;19.23;;
36001;SDS011;22070;50.922;5.430;2022-12-10T14:35:46;56.55;;;18.45;;
36001;SDS011;22070;50.922;5.430;2022-12-10T14:38:35;73.47;;;19.73;;
36001;SDS011;22070;50.922;5.430;2022-12-10T14:41:00;57.47;;;17.92;;
36001;SDS011;22070;50.922;5.430;2022-12-10T14:43:38;60.63;;;18.77;;
36001;SDS011;22070;50.922;5.430;2022-12-10T14:46:06;56.70;;;17.92;;
36001;SDS011;22070;50.922;5.430;2022-12-10T14:48:57;66.95;;;19.67;;
36001;SDS011;22070;50.922;5.430;2022-12-10T14:51:24;66.50;;;19.92;;
36001;SDS011;22070;50.922;5.430;2022-12-10T14:53:52;64.18;;;19.75;;
36001;SDS011;22070;50.922;5.430;2022-12-10T14:58:49;54.95;;;17.80;;
36001;SDS011;22070;50.922;5.430;2022-12-10T15:01:40;49.03;;;16.33;;
36001;SDS011;22070;50.922;5.430;2022-12-10T15:04:15;70.72;;;18.85;;
36001;SDS011;22070;50.922;5.430;2022-12-10T15:06:43;67.88;;;19.98;;
36001;SDS011;22070;50.922;5.430;2022-12-10T15:09:13;68.18;;;19.88;;
36001;SDS011;22070;50.922;5.430;2022-12-10T15:11:54;64.18;;;19.63;;
36001;SDS011;22070;50.922;5.430;2022-12-10T15:14:21;64.10;;;19.77;;
36001;SDS011;22070;50.922;5.430;2022-12-10T15:16:49;69.00;;;20.42;;
36001;SDS011;22070;50.922;5.430;2022-12-10T15:19:21;68.75;;;21.50;;
36001;SDS011;22070;50.922;5.430;2022-12-10T15:21:51;70.07;;;20.67;;
36001;SDS011;22070;50.922;5.430;2022-12-10T15:24:26;68.05;;;20.15;;
36001;SDS011;22070;50.922;5.430;2022-12-10T15:27:00;71.05;;;20.48;;
36001;SDS011;22070;50.922;5.430;2022-12-10T15:31:55;68.87;;;19.70;;
36001;SDS011;22070;50.922;5.430;2022-12-10T15:34:29;53.33;;;16.77;;
36001;SDS011;22070;50.922;5.430;2022-12-10T15:39:51;53.30;;;17.20;;
36001;SDS011;22070;50.922;5.430;2022-12-10T15:45:15;56.83;;;19.27;;
36001;SDS011;22070;50.922;5.430;2022-12-10T15:47:54;64.25;;;20.63;;
36001;SDS011;22070;50.922;5.430;2022-12-10T15:50:23;64.00;;;19.45;;
36001;SDS011;22070;50.922;5.430;2022-12-10T15:52:50;62.75;;;18.38;;
36001;SDS011;22070;50.922;5.430;2022-12-10T15:55:16;68.65;;;20.42;;
36001;SDS011;22070;50.922;5.430;2022-12-10T15:57:42;72.90;;;20.02;;
36001;SDS011;22070;50.922;5.430;2022-12-10T16:00:23;66.10;;;20.27;;
36001;SDS011;22070;50.922;5.430;2022-12-10T16:05:23;62.00;;;19.08;;
36001;SDS011;22070;50.922;5.430;2022-12-10T16:07:50;60.60;;;19.25;;
36001;SDS011;22070;50.922;5.430;2022-12-10T16:10:19;54.42;;;17.27;;
36001;SDS011;22070;50.922;5.430;2022-12-10T16:12:48;61.83;;;19.25;;
36001;SDS011;22070;50.922;5.430;2022-12-10T16:15:35;59.97;;;18.48;;
36001;SDS011;22070;50.922;5.430;2022-12-10T16:18:16;65.88;;;18.50;;
36001;SDS011;22070;50.922;5.430;2022-12-10T16:20:42;43.25;;;13.50;;
36001;SDS011;22070;50.922;5.430;2022-12-10T16:23:07;61.65;;;20.52;;
36001;SDS011;22070;50.922;5.430;2022-12-10T16:25:35;65.03;;;19.23;;
36001;SDS011;22070;50.922;5.430;2022-12-10T16:28:03;69.07;;;20.58;;
36001;SDS011;22070;50.922;5.430;2022-12-10T16:32:58;59.08;;;19.10;;
36001;SDS011;22070;50.922;5.430;2022-12-10T16:35:23;55.88;;;17.60;;
36001;SDS011;22070;50.922;5.430;2022-12-10T16:37:49;53.78;;;17.02;;
36001;SDS011;22070;50.922;5.430;2022-12-10T16:40:19;49.55;;;16.73;;
36001;SDS011;22070;50.922;5.430;2022-12-10T16:42:48;55.03;;;18.27;;
36001;SDS011;22070;50.922;5.430;2022-12-10T16:45:37;66.53;;;20.30;;
36001;SDS011;22070;50.922;5.430;2022-12-10T16:48:03;61.95;;;19.80;;
36001;SDS011;22070;50.922;5.430;2022-12-10T16:50:29;67.53;;;20.77;;
36001;SDS011;22070;50.922;5.430;2022-12-10T16:52:56;60.22;;;21.33;;
36001;SDS011;22070;50.922;5.430;2022-12-10T16:55:23;73.20;;;20.58;;
36001;SDS011;22070;50.922;5.430;2022-12-10T16:57:50;72.63;;;20.80;;
36001;SDS011;22070;50.922;5.430;2022-12-10T17:00:21;64.07;;;19.70;;
36001;SDS011;22070;50.922;5.430;2022-12-10T17:02:48;73.53;;;21.83;;
36001;SDS011;22070;50.922;5.430;2022-12-10T17:05:16;75.05;;;21.50;;
36001;SDS011;22070;50.922;5.430;2022-12-10T17:07:46;76.60;;;21.90;;
36001;SDS011;22070;50.922;5.430;2022-12-10T17:10:12;68.93;;;22.20;;
36001;SDS011;22070;50.922;5.430;2022-12-10T17:12:38;48.33;;;16.15;;
36001;SDS011;22070;50.922;5.430;2022-12-10T17:15:08;70.60;;;22.08;;
36001;SDS011;22070;50.922;5.430;2022-12-10T17:17:37;76.15;;;22.70;;